createdAt,value
2019-01-16T00:02:08.367Z,100763.28
2019-01-16T00:04:40.911Z,100755.75
2019-01-16T00:07:22.989Z,100754.05
2019-01-16T00:10:09.280Z,100757.61
2019-01-16T00:12:48.146Z,100754.05
2019-01-16T00:15:18.006Z,100748.22
2019-01-16T00:17:53.887Z,100744.13
2019-01-16T00:23:12.148Z,100727.84
2019-01-16T00:25:44.970Z,100732.39
2019-01-16T00:28:17.818Z,100728.99
2019-01-16T00:30:47.656Z,100726.27
2019-01-16T00:33:32.541Z,100726.27
2019-01-16T00:36:05.130Z,100727.78
2019-01-16T00:38:41.252Z,100727.78
2019-01-16T00:41:25.936Z,100729.67
2019-01-16T00:44:10.846Z,100723.50
2019-01-16T00:46:52.728Z,100724.00
2019-01-16T00:49:31.301Z,100727.74
2019-01-16T00:52:07.145Z,100720.06
2019-01-16T00:54:37.008Z,100724.00
2019-01-16T00:57:23.368Z,100720.62
2019-01-16T00:59:56.186Z,100722.29
2019-01-16T01:02:28.720Z,100725.66
2019-01-16T01:05:14.770Z,100722.94
2019-01-16T01:07:53.684Z,100723.31
2019-01-16T01:10:26.229Z,100726.16
2019-01-16T01:12:58.537Z,100721.23
2019-01-16T01:15:28.387Z,100723.31
2019-01-16T01:18:14.560Z,100724.80
2019-01-16T01:20:50.561Z,100721.23
2019-01-16T01:23:23.086Z,100722.59
2019-01-16T01:26:10.988Z,100715.41
2019-01-16T01:28:46.609Z,100713.70
2019-01-16T01:31:16.479Z,100712.00
2019-01-16T01:33:49.286Z,100713.70
2019-01-16T01:36:35.424Z,100713.70
2019-01-16T01:39:22.906Z,100712.34
2019-01-16T01:41:52.755Z,100716.43
2019-01-16T01:44:25.581Z,100720.17
2019-01-16T01:47:10.692Z,100717.95
2019-01-16T01:49:49.409Z,100718.28
2019-01-16T01:52:28.479Z,100713.52
2019-01-16T01:55:01.273Z,100715.03
2019-01-16T01:57:34.338Z,100714.01
2019-01-16T02:00:04.178Z,100712.65
2019-01-16T02:02:34.062Z,100708.22
2019-01-16T02:05:03.926Z,100709.42
2019-01-16T02:07:36.771Z,100702.46
2019-01-16T02:10:15.322Z,100699.73
2019-01-16T02:13:01.033Z,100700.73
2019-01-16T02:15:30.892Z,100699.36
2019-01-16T02:18:03.148Z,100699.02
2019-01-16T02:20:38.489Z,100692.85
2019-01-16T02:23:20.278Z,100692.36
2019-01-16T02:25:52.773Z,100685.55
2019-01-16T02:28:28.164Z,100689.14
2019-01-16T02:30:58.036Z,100681.61
2019-01-16T02:33:30.738Z,100682.83
2019-01-16T02:36:00.566Z,100685.36
2019-01-16T02:38:42.751Z,100681.13
2019-01-16T02:41:24.625Z,100680.41
2019-01-16T02:44:10.548Z,100675.83
2019-01-16T02:46:43.395Z,100668.14
2019-01-16T02:49:28.322Z,100671.36
2019-01-16T02:51:58.184Z,100664.55
2019-01-16T02:54:30.654Z,100657.73
2019-01-16T02:57:00.509Z,100656.38
2019-01-16T02:59:30.369Z,100656.38
2019-01-16T03:02:02.663Z,100651.95
2019-01-16T03:04:38.342Z,100647.70
2019-01-16T03:07:10.894Z,100648.20
2019-01-16T03:09:43.654Z,100641.77
2019-01-16T03:12:13.511Z,100644.48
2019-01-16T03:14:52.053Z,100647.55
2019-01-16T03:17:31.072Z,100633.21
2019-01-16T03:20:06.600Z,100633.21
2019-01-16T03:22:48.324Z,100626.06
2019-01-16T03:25:24.224Z,100626.70
2019-01-16T03:28:12.287Z,100625.91
2019-01-16T03:30:45.089Z,100630.49
2019-01-16T03:33:14.921Z,100628.30
2019-01-16T03:35:53.855Z,100621.63
2019-01-16T03:38:32.681Z,100617.02
2019-01-16T03:41:02.550Z,100613.09
2019-01-16T03:43:32.400Z,100616.19
2019-01-16T03:46:02.259Z,100608.02
2019-01-16T03:48:41.095Z,100610.73
2019-01-16T03:51:10.962Z,100608.16
2019-01-16T03:53:56.799Z,100602.72
2019-01-16T03:56:29.351Z,100595.38
2019-01-16T03:59:04.885Z,100592.50
2019-01-16T04:01:43.313Z,100587.73
2019-01-16T04:04:13.169Z,100588.23
2019-01-16T04:06:45.814Z,100582.77
2019-01-16T04:09:18.395Z,100581.08
2019-01-16T04:11:51.181Z,100576.83
2019-01-16T04:14:21.019Z,100581.75
2019-01-16T04:16:50.857Z,100579.40
2019-01-16T04:19:32.784Z,100574.60
2019-01-16T04:22:14.691Z,100575.31
2019-01-16T04:24:44.557Z,100578.69
2019-01-16T04:27:14.401Z,100577.17
2019-01-16T04:29:49.983Z,100573.27
2019-01-16T04:32:25.599Z,100571.56
2019-01-16T04:34:57.891Z,100564.75
2019-01-16T04:37:30.459Z,100555.06
2019-01-16T04:40:16.929Z,100547.39
2019-01-16T04:42:46.793Z,100552.83
2019-01-16T04:45:16.659Z,100548.91
2019-01-16T04:47:46.547Z,100537.17
2019-01-16T04:50:19.345Z,100546.02
2019-01-16T04:52:49.173Z,100540.23
2019-01-16T04:55:32.067Z,100545.34
2019-01-16T04:58:01.909Z,100543.61
2019-01-16T05:00:31.775Z,100544.16
2019-01-16T05:03:04.338Z,100540.95
2019-01-16T05:05:46.216Z,100541.94
2019-01-16T05:08:34.411Z,100537.35
2019-01-16T05:11:10.071Z,100537.84
2019-01-16T05:13:51.989Z,100536.30
2019-01-16T05:16:27.578Z,100529.49
2019-01-16T05:19:12.249Z,100526.12
2019-01-16T05:21:42.109Z,100526.92
2019-01-16T05:24:27.100Z,100519.09
2019-01-16T05:27:05.673Z,100514.51
2019-01-16T05:29:47.516Z,100511.94
2019-01-16T05:32:33.459Z,100506.15
2019-01-16T05:35:14.924Z,100510.08
2019-01-16T05:37:47.677Z,100506.83
2019-01-16T05:40:17.561Z,100503.61
2019-01-16T05:42:47.435Z,100495.59
2019-01-16T05:45:17.281Z,100485.41
2019-01-16T05:47:53.084Z,100490.48
2019-01-16T05:50:34.717Z,100491.16
2019-01-16T05:53:16.626Z,100485.41
2019-01-16T05:55:46.473Z,100486.77
2019-01-16T05:58:31.381Z,100484.72
2019-01-16T06:01:16.196Z,100483.52
2019-01-16T06:04:02.510Z,100483.17
2019-01-16T06:06:48.665Z,100482.68
2019-01-16T06:09:27.201Z,100481.99
2019-01-16T06:12:12.954Z,100472.44
2019-01-16T06:14:58.088Z,100472.77
2019-01-16T06:17:27.952Z,100472.93
2019-01-16T06:20:03.649Z,100466.98
2019-01-16T06:22:36.071Z,100464.26
2019-01-16T06:25:07.741Z,100467.69
2019-01-16T06:27:40.061Z,100461.88
2019-01-16T06:30:29.451Z,100452.70
2019-01-16T06:33:15.321Z,100456.11
2019-01-16T06:35:45.147Z,100452.50
2019-01-16T06:38:20.688Z,100450.81
2019-01-16T06:41:06.826Z,100454.07
2019-01-16T06:43:48.777Z,100450.98
2019-01-16T06:46:33.545Z,100451.34
2019-01-16T06:49:03.393Z,100447.26
2019-01-16T06:51:33.266Z,100444.16
2019-01-16T06:54:06.088Z,100441.97
2019-01-16T06:56:48.168Z,100445.90
2019-01-16T06:59:18.019Z,100436.36
2019-01-16T07:01:53.826Z,100433.27
2019-01-16T07:04:35.607Z,100438.72
2019-01-16T07:07:11.585Z,100439.24
2019-01-16T07:09:56.495Z,100440.23
2019-01-16T07:12:44.195Z,100449.30
2019-01-16T07:15:19.850Z,100449.69
2019-01-16T07:17:49.682Z,100447.30
2019-01-16T07:20:22.228Z,100450.23
2019-01-16T07:22:52.084Z,100449.38
2019-01-16T07:25:21.942Z,100445.62
2019-01-16T07:28:06.833Z,100443.27
2019-01-16T07:30:52.884Z,100440.38
2019-01-16T07:33:22.712Z,100435.64
2019-01-16T07:35:52.644Z,100433.41
2019-01-16T07:38:28.356Z,100429.16
2019-01-16T07:40:58.214Z,100425.78
2019-01-16T07:43:28.072Z,100423.89
2019-01-16T07:46:04.100Z,100424.76
2019-01-16T07:48:33.932Z,100425.96
2019-01-16T07:51:12.763Z,100428.86
2019-01-16T07:53:48.607Z,100419.48
2019-01-16T07:56:18.443Z,100415.77
2019-01-16T07:58:51.010Z,100413.71
2019-01-16T08:01:29.629Z,100410.98
2019-01-16T08:04:05.234Z,100410.83
2019-01-16T08:06:43.592Z,100418.50
2019-01-16T08:09:29.610Z,100416.65
2019-01-16T08:12:05.412Z,100423.95
2019-01-16T08:14:53.626Z,100424.45
2019-01-16T08:17:25.914Z,100430.27
2019-01-16T08:20:01.718Z,100435.91
2019-01-16T08:22:31.552Z,100431.81
2019-01-16T08:25:04.218Z,100436.93
2019-01-16T08:27:49.275Z,100432.15
2019-01-16T08:30:19.138Z,100433.88
2019-01-16T08:32:52.126Z,100434.06
2019-01-16T08:35:21.990Z,100432.15
2019-01-16T08:37:54.785Z,100435.58
2019-01-16T08:40:27.652Z,100430.83
2019-01-16T08:42:57.582Z,100432.20
2019-01-16T08:45:43.314Z,100430.34
2019-01-16T08:48:29.622Z,100432.53
2019-01-16T08:51:15.878Z,100428.81
2019-01-16T08:53:45.754Z,100425.92
2019-01-16T08:56:21.263Z,100420.64
2019-01-16T08:58:54.314Z,100415.19
2019-01-16T09:01:33.136Z,100413.29
2019-01-16T09:04:05.896Z,100402.39
2019-01-16T09:06:52.205Z,100399.66
2019-01-16T09:09:40.381Z,100396.28
2019-01-16T09:12:26.470Z,100387.94
2019-01-16T09:14:59.336Z,100389.63
2019-01-16T09:17:42.293Z,100386.58
2019-01-16T09:20:16.425Z,100385.55
2019-01-16T09:23:01.417Z,100379.26
2019-01-16T09:25:47.432Z,100375.34
2019-01-16T09:28:17.281Z,100381.66
2019-01-16T09:31:03.069Z,100379.77
2019-01-16T09:33:49.435Z,100389.14
2019-01-16T09:36:19.280Z,100390.34
2019-01-16T09:38:49.137Z,100385.59
2019-01-16T09:41:24.924Z,100390.05
2019-01-16T09:43:54.779Z,100373.70
2019-01-16T09:46:30.322Z,100368.08
2019-01-16T09:49:06.165Z,100356.30
2019-01-16T09:51:36.013Z,100358.00
2019-01-16T09:54:12.089Z,100358.38
2019-01-16T09:56:47.700Z,100358.23
2019-01-16T09:59:23.584Z,100358.41
2019-01-16T10:01:53.452Z,100356.89
2019-01-16T10:04:28.737Z,100348.38
2019-01-16T10:07:04.368Z,100334.53
2019-01-16T10:09:49.303Z,100326.35
2019-01-16T10:12:19.150Z,100321.03
2019-01-16T10:15:00.898Z,100324.98
2019-01-16T10:17:47.031Z,100333.88
2019-01-16T10:20:19.861Z,100336.93
2019-01-16T10:22:52.381Z,100335.06
2019-01-16T10:25:25.227Z,100327.05
2019-01-16T10:28:04.374Z,100333.70
2019-01-16T10:30:43.083Z,100333.70
2019-01-16T10:33:12.929Z,100321.09
2019-01-16T10:35:42.796Z,100313.91
2019-01-16T10:38:30.443Z,100309.33
2019-01-16T10:41:16.868Z,100308.99
2019-01-16T10:43:46.727Z,100292.63
2019-01-16T10:46:19.235Z,100283.38
2019-01-16T10:49:05.511Z,100284.38
2019-01-16T10:51:35.390Z,100288.47
2019-01-16T10:54:21.351Z,100276.20
2019-01-16T10:57:07.773Z,100270.75
2019-01-16T10:59:46.937Z,100266.16
2019-01-16T11:02:31.827Z,100264.00
2019-01-16T11:05:01.709Z,100264.16
2019-01-16T11:07:43.457Z,100253.76
2019-01-16T11:10:14.043Z,100251.56
2019-01-16T11:12:46.972Z,100238.09
2019-01-16T11:15:22.930Z,100230.08
2019-01-16T11:18:01.877Z,100223.77
2019-01-16T11:20:47.986Z,100224.09
2019-01-16T11:23:36.235Z,100214.92
2019-01-16T11:26:11.833Z,100222.93
2019-01-16T11:28:41.707Z,100210.30
2019-01-16T11:31:11.571Z,100208.43
2019-01-16T11:33:41.449Z,100203.31
2019-01-16T11:36:27.869Z,100192.41
2019-01-16T11:38:57.728Z,100190.54
2019-01-16T11:41:33.243Z,100196.48
2019-01-16T11:44:15.326Z,100189.67
2019-01-16T11:46:45.186Z,100184.59
2019-01-16T11:49:15.023Z,100185.59
2019-01-16T11:51:47.703Z,100178.44
2019-01-16T11:54:33.470Z,100178.77
2019-01-16T11:57:03.299Z,100169.56
2019-01-16T11:59:39.098Z,100160.88
2019-01-16T12:02:12.028Z,100158.66
2019-01-16T12:04:41.855Z,100148.28
2019-01-16T12:07:27.912Z,100145.88
2019-01-16T12:10:09.857Z,100139.56
2019-01-16T12:12:39.715Z,100134.11
2019-01-16T12:15:11.208Z,100129.02
2019-01-16T12:17:57.274Z,100121.02
2019-01-16T12:20:41.906Z,100127.97
2019-01-16T12:23:14.713Z,100122.52
2019-01-16T12:25:47.502Z,100120.28
2019-01-16T12:28:23.301Z,100115.33
2019-01-16T12:30:55.851Z,100109.55
2019-01-16T12:33:34.681Z,100094.22
2019-01-16T12:36:07.168Z,100088.41
2019-01-16T12:38:46.067Z,100081.09
2019-01-16T12:41:16.021Z,100078.36
2019-01-16T12:43:52.027Z,100069.66
2019-01-16T12:46:21.874Z,100065.24
2019-01-16T12:48:54.154Z,100057.06
2019-01-16T12:51:35.793Z,100052.80
2019-01-16T12:54:14.390Z,100047.85
2019-01-16T12:56:44.272Z,100047.85
2019-01-16T12:59:14.118Z,100048.72
2019-01-16T13:01:55.986Z,100046.16
2019-01-16T13:04:42.208Z,100030.80
2019-01-16T13:07:18.195Z,100023.66
2019-01-16T13:10:04.281Z,100035.92
2019-01-16T13:12:40.156Z,100026.38
2019-01-16T13:15:10.003Z,100012.75
2019-01-16T13:17:46.004Z,100011.73
2019-01-16T13:20:21.535Z,100017.52
2019-01-16T13:22:51.412Z,100009.34
2019-01-16T13:25:21.268Z,100010.03
2019-01-16T13:27:56.785Z,100010.72
2019-01-16T13:30:35.966Z,99996.40
2019-01-16T13:33:14.654Z,99993.17
2019-01-16T13:35:45.743Z,99993.34
2019-01-16T13:38:21.948Z,99992.98
2019-01-16T13:40:57.756Z,99992.65
2019-01-16T13:43:27.620Z,99980.71
2019-01-16T13:45:57.462Z,99984.80
2019-01-16T13:48:27.320Z,99984.97
2019-01-16T13:51:09.486Z,99974.06
2019-01-16T13:53:39.320Z,99965.89
2019-01-16T13:56:25.602Z,99957.89
2019-01-16T13:59:11.870Z,99964.03
2019-01-16T14:01:41.736Z,99948.34
2019-01-16T14:04:11.579Z,99943.25
2019-01-16T14:06:44.082Z,99947.34
2019-01-16T14:09:22.848Z,99939.34
2019-01-16T14:12:04.642Z,99941.89
2019-01-16T14:14:50.963Z,99930.98
2019-01-16T14:17:23.838Z,99932.34
2019-01-16T14:20:11.774Z,99941.89
2019-01-16T14:22:47.392Z,99936.08
2019-01-16T14:25:29.478Z,99941.70
2019-01-16T14:28:02.208Z,99932.70
2019-01-16T14:30:44.340Z,99929.80
2019-01-16T14:33:14.187Z,99936.59
2019-01-16T14:35:46.710Z,99930.80
2019-01-16T14:38:19.266Z,99916.49
2019-01-16T14:40:49.148Z,99922.60
2019-01-16T14:43:26.595Z,99913.92
2019-01-16T14:46:02.760Z,99918.88
2019-01-16T14:48:35.695Z,99908.66
2019-01-16T14:51:07.938Z,99900.11
2019-01-16T14:53:43.797Z,99904.89
2019-01-16T14:56:13.640Z,99903.53
2019-01-16T14:58:49.451Z,99902.49
2019-01-16T15:01:28.394Z,99891.77
2019-01-16T15:04:00.992Z,99892.48
2019-01-16T15:06:30.850Z,99888.55
2019-01-16T15:09:16.861Z,99880.88
2019-01-16T15:11:46.714Z,99872.37
2019-01-16T15:14:22.947Z,99873.38
2019-01-16T15:16:52.919Z,99878.50
2019-01-16T15:19:39.233Z,99874.41
2019-01-16T15:22:09.081Z,99875.09
2019-01-16T15:24:38.931Z,99865.02
2019-01-16T15:27:08.818Z,99862.28
2019-01-16T15:29:38.679Z,99864.52
2019-01-16T15:32:26.831Z,99860.75
2019-01-16T15:34:59.537Z,99862.65
2019-01-16T15:37:29.370Z,99851.21
2019-01-16T15:39:59.231Z,99851.20
2019-01-16T15:42:29.082Z,99846.94
2019-01-16T15:45:14.228Z,99836.20
2019-01-16T15:47:59.197Z,99846.61
2019-01-16T15:50:45.205Z,99848.48
2019-01-16T15:53:18.048Z,99848.48
2019-01-16T15:55:47.908Z,99836.89
2019-01-16T15:58:17.769Z,99833.66
2019-01-16T16:00:59.596Z,99830.41
2019-01-16T16:03:45.946Z,99833.98
2019-01-16T16:06:34.041Z,99823.41
2019-01-16T16:09:22.101Z,99824.63
2019-01-16T16:11:54.983Z,99821.36
2019-01-16T16:14:27.813Z,99811.67
2019-01-16T16:16:57.681Z,99811.70
2019-01-16T16:19:43.965Z,99808.28
2019-01-16T16:22:19.216Z,99806.09
2019-01-16T16:24:54.461Z,99805.05
2019-01-16T16:27:30.079Z,99808.10
2019-01-16T16:30:05.660Z,99801.14
2019-01-16T16:32:53.610Z,99805.55
2019-01-16T16:35:29.433Z,99803.87
2019-01-16T16:38:11.377Z,99795.83
2019-01-16T16:40:57.410Z,99796.00
2019-01-16T16:43:45.747Z,99788.87
2019-01-16T16:46:18.698Z,99783.77
2019-01-16T16:48:51.224Z,99784.09
2019-01-16T16:51:26.775Z,99781.73
2019-01-16T16:53:59.567Z,99775.09
2019-01-16T16:56:29.422Z,99772.52
2019-01-16T16:59:08.248Z,99760.59
2019-01-16T17:01:41.219Z,99764.84
2019-01-16T17:04:27.477Z,99770.14
2019-01-16T17:07:13.839Z,99763.65
2019-01-16T17:09:46.276Z,99753.09
2019-01-16T17:12:16.137Z,99750.05
2019-01-16T17:14:48.715Z,99742.91
2019-01-16T17:17:18.565Z,99740.53
2019-01-16T17:19:48.406Z,99738.81
2019-01-16T17:22:18.305Z,99740.00
2019-01-16T17:24:56.944Z,99734.73
2019-01-16T17:27:26.811Z,99737.81
2019-01-16T17:29:56.644Z,99730.14
2019-01-16T17:32:32.087Z,99733.05
2019-01-16T17:35:01.950Z,99728.95
2019-01-16T17:37:40.757Z,99735.44
2019-01-16T17:40:22.539Z,99739.35
2019-01-16T17:42:52.415Z,99731.50
2019-01-16T17:45:28.429Z,99728.27
2019-01-16T17:48:04.274Z,99732.36
2019-01-16T17:50:34.155Z,99733.05
2019-01-16T17:53:20.529Z,99729.28
2019-01-16T17:55:50.396Z,99729.99
2019-01-16T17:58:29.465Z,99732.54
2019-01-16T18:01:02.504Z,99728.45
2019-01-16T18:03:32.341Z,99728.09
2019-01-16T18:06:18.755Z,99730.31
2019-01-16T18:09:05.215Z,99725.37
2019-01-16T18:11:35.061Z,99711.09
2019-01-16T18:14:20.821Z,99716.00
2019-01-16T18:17:07.025Z,99701.88
2019-01-16T18:19:39.890Z,99686.89
2019-01-16T18:22:09.743Z,99690.47
2019-01-16T18:24:48.254Z,99689.11
2019-01-16T18:27:21.291Z,99694.56
2019-01-16T18:30:07.537Z,99691.33
2019-01-16T18:32:37.396Z,99694.38
2019-01-16T18:35:14.161Z,99695.59
2019-01-16T18:37:44.038Z,99686.73
2019-01-16T18:40:33.021Z,99686.56
2019-01-16T18:43:18.237Z,99683.34
2019-01-16T18:46:04.450Z,99675.16
2019-01-16T18:48:43.470Z,99672.44
2019-01-16T18:51:16.280Z,99676.52
2019-01-16T18:53:46.117Z,99672.61
2019-01-16T18:56:21.756Z,99682.98
2019-01-16T18:58:51.588Z,99675.16
2019-01-16T19:01:36.545Z,99676.84
2019-01-16T19:04:22.464Z,99678.53
2019-01-16T19:06:52.309Z,99670.71
2019-01-16T19:09:22.175Z,99661.86
2019-01-16T19:11:54.990Z,99664.91
2019-01-16T19:14:27.844Z,99672.75
2019-01-16T19:17:00.323Z,99665.94
2019-01-16T19:19:46.323Z,99660.82
2019-01-16T19:22:16.168Z,99665.63
2019-01-16T19:24:58.010Z,99665.44
2019-01-16T19:27:27.857Z,99668.34
2019-01-16T19:30:13.554Z,99663.72
2019-01-16T19:32:59.639Z,99669.17
2019-01-16T19:35:41.775Z,99667.81
2019-01-16T19:38:23.742Z,99655.05
2019-01-16T19:40:56.040Z,99665.63
2019-01-16T19:43:31.356Z,99665.94
2019-01-16T19:46:01.222Z,99665.63
2019-01-16T19:48:43.044Z,99665.94
2019-01-16T19:51:15.895Z,99667.30
2019-01-16T19:53:55.003Z,99662.36
2019-01-16T19:56:30.578Z,99664.91
2019-01-16T19:59:03.454Z,99661.86
2019-01-16T20:01:36.442Z,99664.91
2019-01-16T20:04:12.131Z,99659.31
2019-01-16T20:06:53.690Z,99660.82
2019-01-16T20:09:23.545Z,99658.27
2019-01-16T20:11:56.086Z,99652.14
2019-01-16T20:14:40.640Z,99651.28
2019-01-16T20:17:16.370Z,99641.74
2019-01-16T20:19:46.249Z,99642.95
2019-01-16T20:22:16.101Z,99643.78
2019-01-16T20:24:57.936Z,99647.88
2019-01-16T20:27:43.922Z,99649.41
2019-01-16T20:30:21.108Z,99644.82
2019-01-16T20:32:53.962Z,99648.91
2019-01-16T20:35:29.722Z,99647.05
2019-01-16T20:38:08.866Z,99643.97
2019-01-16T20:40:47.675Z,99645.69
2019-01-16T20:43:20.400Z,99637.50
2019-01-16T20:46:06.550Z,99638.01
2019-01-16T20:48:45.558Z,99634.93
2019-01-16T20:51:15.426Z,99631.02
2019-01-16T20:53:45.264Z,99633.42
2019-01-16T20:56:17.789Z,99634.78
2019-01-16T20:59:03.530Z,99633.92
2019-01-16T21:01:33.357Z,99633.92
2019-01-16T21:04:03.228Z,99642.95
2019-01-16T21:06:35.803Z,99640.05
2019-01-16T21:09:13.644Z,99644.47
2019-01-16T21:11:49.208Z,99637.83
2019-01-16T21:14:21.820Z,99642.78
2019-01-16T21:16:51.679Z,99640.38
2019-01-16T21:19:21.535Z,99638.33
2019-01-16T21:22:06.351Z,99643.28
2019-01-16T21:24:45.381Z,99635.61
2019-01-16T21:27:15.239Z,99641.59
2019-01-16T21:29:45.074Z,99646.87
2019-01-16T21:32:17.920Z,99646.69
2019-01-16T21:34:47.742Z,99650.27
2019-01-16T21:37:26.497Z,99645.83
2019-01-16T21:40:02.472Z,99645.69
2019-01-16T21:42:38.045Z,99640.55
2019-01-16T21:45:13.738Z,99643.11
2019-01-16T21:47:59.772Z,99635.61
2019-01-16T21:50:29.653Z,99640.55
2019-01-16T21:52:59.489Z,99637.33
2019-01-16T21:55:29.339Z,99639.52
2019-01-16T21:57:59.198Z,99636.14
2019-01-16T22:00:29.040Z,99636.97
2019-01-16T22:03:01.857Z,99638.69
2019-01-16T22:05:37.961Z,99638.69
2019-01-16T22:08:16.811Z,99640.70
2019-01-16T22:10:58.780Z,99641.92
2019-01-16T22:13:37.695Z,99639.70
2019-01-16T22:16:19.873Z,99640.05
2019-01-16T22:18:52.594Z,99639.38
2019-01-16T22:21:25.105Z,99633.42
2019-01-16T22:24:10.909Z,99634.24
2019-01-16T22:26:52.878Z,99634.93
2019-01-16T22:29:22.752Z,99626.25
2019-01-16T22:31:58.065Z,99629.83
2019-01-16T22:34:36.787Z,99633.92
2019-01-16T22:37:06.637Z,99621.66
2019-01-16T22:39:42.428Z,99614.48
2019-01-16T22:42:24.291Z,99618.25
2019-01-16T22:44:54.121Z,99625.39
2019-01-16T22:47:32.785Z,99620.98
2019-01-16T22:50:18.934Z,99621.30
2019-01-16T22:53:04.693Z,99616.39
2019-01-16T22:55:34.534Z,99611.62
2019-01-16T22:58:04.399Z,99617.75
2019-01-16T23:00:36.074Z,99612.48
2019-01-16T23:03:08.765Z,99616.56
2019-01-16T23:05:41.323Z,99604.45
2019-01-16T23:08:11.156Z,99605.13
2019-01-16T23:10:43.781Z,99597.85
2019-01-16T23:13:28.669Z,99604.30
2019-01-16T23:16:01.272Z,99588.28
2019-01-16T23:18:39.831Z,99591.36
2019-01-16T23:21:15.513Z,99592.05
2019-01-16T23:23:49.791Z,99591.69
2019-01-16T23:26:16.933Z,99582.15
2019-01-16T23:28:49.261Z,99581.32
2019-01-16T23:31:34.459Z,99570.92
2019-01-16T23:34:07.407Z,99580.46
2019-01-16T23:36:37.261Z,99584.41
2019-01-16T23:39:14.520Z,99578.42
2019-01-16T23:42:00.489Z,99579.96
2019-01-16T23:44:42.317Z,99580.64
2019-01-16T23:47:14.850Z,99572.14
2019-01-16T23:49:53.695Z,99584.23
2019-01-16T23:52:35.812Z,99575.70
2019-01-16T23:55:06.636Z,99581.33
2019-01-16T23:57:54.591Z,99583.05
